createdAt,value
2024-03-09T00:00:46.725Z,6.10
2024-03-09T00:03:14.637Z,6.90
2024-03-09T00:05:42.199Z,6.30
2024-03-09T00:08:10.820Z,6.80
2024-03-09T00:10:38.662Z,6.40
2024-03-09T00:13:05.920Z,7.10
2024-03-09T00:15:32.990Z,7.40
2024-03-09T00:17:59.990Z,7.90
2024-03-09T00:20:36.562Z,6.80
2024-03-09T00:23:07.601Z,7.30
2024-03-09T00:25:35.809Z,6.40
2024-03-09T00:28:02.800Z,6.70
2024-03-09T00:30:33.382Z,5.70
2024-03-09T00:33:02.350Z,5.70
2024-03-09T00:35:31.848Z,6.20
2024-03-09T00:38:00.416Z,6.60
2024-03-09T00:40:32.467Z,6.40
2024-03-09T00:43:07.209Z,6.40
2024-03-09T00:45:35.150Z,5.90
2024-03-09T00:48:04.632Z,5.10
2024-03-09T00:50:32.416Z,5.40
2024-03-09T00:52:59.317Z,5.40
2024-03-09T00:55:26.784Z,5.40
2024-03-09T00:57:55.550Z,6.00
2024-03-09T01:00:25.524Z,5.80
2024-03-09T01:02:53.552Z,5.70
2024-03-09T01:05:21.570Z,7.50
2024-03-09T01:07:51.247Z,6.40
2024-03-09T01:10:18.446Z,6.10
2024-03-09T01:12:45.394Z,5.60
2024-03-09T01:15:12.433Z,5.80
2024-03-09T01:17:40.045Z,5.20
2024-03-09T01:20:09.022Z,4.90
2024-03-09T01:22:37.482Z,4.50
2024-03-09T01:25:05.259Z,5.10
2024-03-09T01:27:32.168Z,6.10
2024-03-09T01:30:02.394Z,5.90
2024-03-09T01:32:30.068Z,6.10
2024-03-09T01:34:58.227Z,6.10
2024-03-09T01:37:26.404Z,6.10
2024-03-09T01:39:53.672Z,6.60
2024-03-09T01:42:22.969Z,5.70
2024-03-09T01:44:51.787Z,6.00
2024-03-09T01:47:27.715Z,6.70
2024-03-09T01:52:25.102Z,6.50
2024-03-09T01:54:55.193Z,7.10
2024-03-09T01:57:23.230Z,7.20
2024-03-09T01:59:56.606Z,7.20
2024-03-09T02:02:24.493Z,6.80
2024-03-09T02:04:52.836Z,6.50
2024-03-09T02:07:20.442Z,7.70
2024-03-09T02:09:49.594Z,7.20
2024-03-09T02:12:18.705Z,6.90
2024-03-09T02:14:46.546Z,6.90
2024-03-09T02:17:15.437Z,7.40
2024-03-09T02:19:43.349Z,8.00
2024-03-09T02:22:13.111Z,7.70
2024-03-09T02:24:42.874Z,7.50
2024-03-09T02:27:11.198Z,7.30
2024-03-09T02:29:39.484Z,8.00
2024-03-09T02:32:08.668Z,8.30
2024-03-09T02:34:36.516Z,8.30
2024-03-09T02:37:04.759Z,7.60
2024-03-09T02:39:32.348Z,6.70
2024-03-09T02:42:00.157Z,6.40
2024-03-09T02:44:30.841Z,6.90
2024-03-09T02:46:58.078Z,6.50
2024-03-09T02:49:27.863Z,6.60
2024-03-09T02:51:55.298Z,6.80
2024-03-09T02:54:22.605Z,6.20
2024-03-09T02:56:51.034Z,6.90
2024-03-09T02:59:18.426Z,6.30
2024-03-09T03:01:48.517Z,6.40
2024-03-09T03:04:16.659Z,6.40
2024-03-09T03:06:45.078Z,7.20
2024-03-09T03:09:13.763Z,7.30
2024-03-09T03:11:44.163Z,8.00
2024-03-09T03:14:11.928Z,7.30
2024-03-09T03:16:39.375Z,7.50
2024-03-09T03:19:08.938Z,6.80
2024-03-09T03:21:41.524Z,7.80
2024-03-09T03:24:10.719Z,7.00
2024-03-09T03:26:38.296Z,7.10
2024-03-09T03:29:06.008Z,8.10
2024-03-09T03:31:33.715Z,8.10
2024-03-09T03:34:02.385Z,7.40
2024-03-09T03:36:29.901Z,7.20
2024-03-09T03:38:57.062Z,7.50
2024-03-09T03:41:24.668Z,6.70
2024-03-09T03:43:52.367Z,6.70
2024-03-09T03:46:19.695Z,6.50
2024-03-09T03:48:47.976Z,6.60
2024-03-09T03:51:17.199Z,6.70
2024-03-09T03:53:46.267Z,6.50
2024-03-09T03:56:15.015Z,7.00
2024-03-09T03:58:53.217Z,7.00
2024-03-09T04:01:20.186Z,7.30
2024-03-09T04:03:48.454Z,6.40
2024-03-09T04:06:15.336Z,6.80
2024-03-09T04:08:42.248Z,6.30
2024-03-09T04:11:09.568Z,7.10
2024-03-09T04:13:36.732Z,6.20
2024-03-09T04:16:03.782Z,7.10
2024-03-09T04:18:31.897Z,7.40
2024-03-09T04:20:59.317Z,8.30
2024-03-09T04:23:26.536Z,7.50
2024-03-09T04:26:00.013Z,7.10
2024-03-09T04:28:29.834Z,7.90
2024-03-09T04:30:59.598Z,6.50
2024-03-09T04:33:27.762Z,6.00
2024-03-09T04:35:55.418Z,5.60
2024-03-09T04:38:22.540Z,6.20
2024-03-09T04:40:52.901Z,6.50
2024-03-09T04:43:20.002Z,6.50
2024-03-09T04:45:47.530Z,8.30
2024-03-09T04:48:17.774Z,8.10
2024-03-09T04:50:49.557Z,7.80
2024-03-09T04:53:18.504Z,7.60
2024-03-09T04:55:50.737Z,8.10
2024-03-09T04:58:19.880Z,8.60
2024-03-09T05:00:47.789Z,7.50
2024-03-09T05:03:15.757Z,9.00
2024-03-09T05:05:44.619Z,9.20
2024-03-09T05:08:12.382Z,8.00
2024-03-09T05:10:39.668Z,8.20
2024-03-09T05:13:08.801Z,7.70
2024-03-09T05:15:37.499Z,7.60
2024-03-09T05:18:11.123Z,8.20
2024-03-09T05:20:38.836Z,9.30
2024-03-09T05:23:13.229Z,9.30
2024-03-09T05:25:43.778Z,8.90
2024-03-09T05:28:15.902Z,9.40
2024-03-09T05:30:45.280Z,9.10
2024-03-09T05:33:13.757Z,8.30
2024-03-09T05:35:41.328Z,8.50
2024-03-09T05:38:10.931Z,8.30
2024-03-09T05:40:39.025Z,9.40
2024-03-09T05:43:09.672Z,8.30
2024-03-09T05:45:38.411Z,9.00
2024-03-09T05:48:07.004Z,7.80
2024-03-09T05:50:36.265Z,8.00
2024-03-09T05:53:03.759Z,7.70
2024-03-09T05:55:31.374Z,8.30
2024-03-09T05:57:59.361Z,8.00
2024-03-09T06:00:29.720Z,8.20
2024-03-09T06:02:58.920Z,7.80
2024-03-09T06:05:33.375Z,7.70
2024-03-09T06:08:03.832Z,7.90
2024-03-09T06:10:31.882Z,8.30
2024-03-09T06:12:59.088Z,8.80
2024-03-09T06:15:27.144Z,9.20
2024-03-09T06:17:58.421Z,8.70
2024-03-09T06:20:30.417Z,8.40
2024-03-09T06:22:58.782Z,7.80
2024-03-09T06:25:31.627Z,8.10
2024-03-09T06:28:09.424Z,9.80
2024-03-09T06:30:39.676Z,8.30
2024-03-09T06:33:06.565Z,9.40
2024-03-09T06:35:34.239Z,8.40
2024-03-09T06:38:11.973Z,9.30
2024-03-09T06:40:42.945Z,8.20
2024-03-09T06:43:12.023Z,8.90
2024-03-09T06:45:40.815Z,8.90
2024-03-09T06:48:09.021Z,8.80
2024-03-09T06:50:37.910Z,9.30
2024-03-09T06:53:05.315Z,9.00
2024-03-09T06:55:32.732Z,8.50
2024-03-09T06:58:05.491Z,8.20
2024-03-09T07:00:38.759Z,8.30
2024-03-09T07:03:07.080Z,7.10
2024-03-09T07:05:39.142Z,8.20
2024-03-09T07:08:11.640Z,9.20
2024-03-09T07:10:39.409Z,8.70
2024-03-09T07:13:06.644Z,9.20
2024-03-09T07:15:34.164Z,8.80
2024-03-09T07:18:02.297Z,9.00
2024-03-09T07:20:30.399Z,8.20
2024-03-09T07:22:58.102Z,7.80
2024-03-09T07:25:28.784Z,7.90
2024-03-09T07:27:58.017Z,8.40
2024-03-09T07:30:26.261Z,8.10
2024-03-09T07:32:55.670Z,8.00
2024-03-09T07:35:29.229Z,7.10
2024-03-09T07:38:00.640Z,8.30
2024-03-09T07:40:33.665Z,8.00
2024-03-09T07:43:01.210Z,8.30
2024-03-09T07:45:29.674Z,8.20
2024-03-09T07:47:57.008Z,8.40
2024-03-09T07:50:24.868Z,8.70
2024-03-09T07:52:54.775Z,8.70
2024-03-09T07:55:24.766Z,8.20
2024-03-09T07:58:08.241Z,9.40
2024-03-09T08:00:41.536Z,7.00
2024-03-09T08:03:08.722Z,7.90
2024-03-09T08:05:35.856Z,6.80
2024-03-09T08:08:10.419Z,8.30
2024-03-09T08:10:54.369Z,8.10
2024-03-09T08:13:24.964Z,7.80
2024-03-09T08:15:54.331Z,7.50
2024-03-09T08:18:23.426Z,8.60
2024-03-09T08:20:51.179Z,8.60
2024-03-09T08:23:19.043Z,9.30
2024-03-09T08:25:46.627Z,8.20
2024-03-09T08:28:14.349Z,7.50
2024-03-09T08:30:42.393Z,7.40
2024-03-09T08:33:11.054Z,8.20
2024-03-09T08:35:38.338Z,8.80
2024-03-09T08:38:05.981Z,8.40
2024-03-09T08:40:33.401Z,7.90
2024-03-09T08:43:00.603Z,7.60
2024-03-09T08:45:28.916Z,8.00
2024-03-09T08:47:56.195Z,8.40
2024-03-09T08:50:24.692Z,8.80
2024-03-09T08:52:52.029Z,7.40
2024-03-09T08:55:20.266Z,7.60
2024-03-09T08:57:50.316Z,7.30
2024-03-09T09:00:26.721Z,8.00
2024-03-09T09:02:58.711Z,6.60
2024-03-09T09:05:29.148Z,7.50
2024-03-09T09:07:57.413Z,7.60
2024-03-09T09:10:27.211Z,8.60
2024-03-09T09:12:55.987Z,8.50
2024-03-09T09:15:26.535Z,8.70
2024-03-09T09:17:55.408Z,7.90
2024-03-09T09:20:22.748Z,7.90
2024-03-09T09:22:50.879Z,9.60
2024-03-09T09:25:28.603Z,7.80
2024-03-09T09:27:58.391Z,8.20
2024-03-09T09:30:27.889Z,6.30
2024-03-09T09:32:54.865Z,8.30
2024-03-09T09:35:22.168Z,7.70
2024-03-09T09:37:49.177Z,7.10
2024-03-09T09:40:17.479Z,7.60
2024-03-09T09:42:46.334Z,8.30
2024-03-09T09:45:35.415Z,7.20
2024-03-09T09:48:03.361Z,8.00
2024-03-09T09:50:36.461Z,9.80
2024-03-09T09:53:09.897Z,12.20
2024-03-09T09:55:37.930Z,9.30
2024-03-09T09:58:07.856Z,7.90
2024-03-09T10:00:34.815Z,8.10
2024-03-09T10:03:02.805Z,7.20
2024-03-09T10:05:30.289Z,8.40
2024-03-09T10:08:02.717Z,11.70
2024-03-09T10:10:36.859Z,10.10
2024-03-09T10:13:14.169Z,10.60
2024-03-09T10:15:44.869Z,9.00
2024-03-09T10:18:16.996Z,9.00
2024-03-09T10:20:44.563Z,9.60
2024-03-09T10:23:15.482Z,10.40
2024-03-09T10:25:43.312Z,9.00
2024-03-09T10:28:11.944Z,10.70
2024-03-09T10:30:40.208Z,9.80
2024-03-09T10:33:17.985Z,8.10
2024-03-09T10:35:48.316Z,8.00
2024-03-09T10:38:19.111Z,9.50
2024-03-09T10:40:46.590Z,8.50
2024-03-09T10:43:15.595Z,8.40
2024-03-09T10:45:43.203Z,8.50
2024-03-09T10:48:11.368Z,8.70
2024-03-09T10:50:56.551Z,8.40
2024-03-09T10:53:23.410Z,8.80
2024-03-09T10:56:07.533Z,10.30
2024-03-09T10:58:39.212Z,9.50
2024-03-09T11:01:09.461Z,7.10
2024-03-09T11:03:38.042Z,8.90
2024-03-09T11:06:05.023Z,9.30
2024-03-09T11:08:34.267Z,9.40
2024-03-09T11:11:03.563Z,7.90
2024-03-09T11:13:32.430Z,9.50
2024-03-09T11:16:00.311Z,8.20
2024-03-09T11:18:27.376Z,9.10
2024-03-09T11:21:01.741Z,11.00
2024-03-09T11:23:34.505Z,8.70
2024-03-09T11:26:04.678Z,8.90
2024-03-09T11:28:52.229Z,8.70
2024-03-09T11:31:27.685Z,10.50
2024-03-09T11:34:23.729Z,7.70
2024-03-09T11:36:53.414Z,9.40
2024-03-09T11:39:23.604Z,11.70
2024-03-09T11:41:52.519Z,9.50
2024-03-09T11:44:23.895Z,13.00
2024-03-09T11:46:52.432Z,8.80
2024-03-09T11:49:19.554Z,8.30
2024-03-09T11:51:49.540Z,9.00
2024-03-09T11:54:20.413Z,8.80
2024-03-09T11:56:47.648Z,11.90
2024-03-09T11:59:17.013Z,13.90
2024-03-09T12:01:45.012Z,8.70
2024-03-09T12:04:12.499Z,9.70
2024-03-09T12:06:43.984Z,10.00
2024-03-09T12:09:15.272Z,11.50
2024-03-09T12:11:47.846Z,9.60
2024-03-09T12:14:16.807Z,11.60
2024-03-09T12:16:46.740Z,12.30
2024-03-09T12:19:15.676Z,8.60
2024-03-09T12:21:44.388Z,14.20
2024-03-09T12:24:14.088Z,7.60
2024-03-09T12:26:42.738Z,9.40
2024-03-09T12:29:14.478Z,7.00
2024-03-09T12:31:42.441Z,6.30
2024-03-09T12:34:12.158Z,7.10
2024-03-09T12:36:51.116Z,6.80
2024-03-09T12:39:19.269Z,8.90
2024-03-09T12:41:55.298Z,7.70
2024-03-09T12:44:23.674Z,6.90
2024-03-09T12:46:50.999Z,7.20
2024-03-09T12:49:20.128Z,6.90
2024-03-09T12:51:50.147Z,6.90
2024-03-09T12:54:18.640Z,7.20
2024-03-09T12:56:54.171Z,7.30
2024-03-09T12:59:28.090Z,7.90
2024-03-09T13:01:56.292Z,6.90
2024-03-09T13:04:28.366Z,6.10
2024-03-09T13:06:58.529Z,7.30
2024-03-09T13:09:34.372Z,6.40
2024-03-09T13:12:04.312Z,6.30
2024-03-09T13:14:35.632Z,6.50
2024-03-09T13:17:04.383Z,8.00
2024-03-09T13:19:31.673Z,8.70
2024-03-09T13:22:01.326Z,7.90
2024-03-09T13:24:29.127Z,7.50
2024-03-09T13:26:57.460Z,8.00
2024-03-09T13:29:30.488Z,7.40
2024-03-09T13:31:59.963Z,6.20
2024-03-09T13:34:32.052Z,7.60
2024-03-09T13:37:00.658Z,7.80
2024-03-09T13:39:36.795Z,7.70
2024-03-09T13:42:10.716Z,8.60
2024-03-09T13:44:38.668Z,8.10
2024-03-09T13:47:07.079Z,9.10
2024-03-09T13:49:34.625Z,7.70
2024-03-09T13:52:02.020Z,6.10
2024-03-09T13:54:30.492Z,8.80
2024-03-09T13:56:57.642Z,8.80
2024-03-09T13:59:25.242Z,7.10
2024-03-09T14:01:52.634Z,9.20
2024-03-09T14:04:24.012Z,8.40
2024-03-09T14:07:06.577Z,7.90
2024-03-09T14:09:47.033Z,6.50
2024-03-09T14:12:17.223Z,6.70
2024-03-09T14:14:44.165Z,10.40
2024-03-09T14:17:11.170Z,8.40
2024-03-09T14:19:40.636Z,8.30
2024-03-09T14:22:12.711Z,7.80
2024-03-09T14:24:39.708Z,9.10
2024-03-09T14:27:09.918Z,7.80
2024-03-09T14:29:37.477Z,7.50
2024-03-09T14:32:07.757Z,6.60
2024-03-09T14:34:36.414Z,6.20
2024-03-09T14:37:03.865Z,7.30
2024-03-09T14:39:32.314Z,7.70
2024-03-09T14:41:59.300Z,7.60
2024-03-09T14:44:26.280Z,7.40
2024-03-09T14:46:53.385Z,6.70
2024-03-09T14:49:20.669Z,7.20
2024-03-09T14:51:48.467Z,9.20
2024-03-09T14:54:18.733Z,7.20
2024-03-09T14:56:47.836Z,9.30
2024-03-09T14:59:15.121Z,8.00
2024-03-09T15:01:44.840Z,8.00
2024-03-09T15:04:16.344Z,7.00
2024-03-09T15:06:43.376Z,6.20
2024-03-09T15:09:22.264Z,6.00
2024-03-09T15:11:53.956Z,5.80
2024-03-09T15:14:24.665Z,6.00
2024-03-09T15:16:51.902Z,8.70
2024-03-09T15:19:20.081Z,8.50
2024-03-09T15:21:47.100Z,7.90
2024-03-09T15:24:14.034Z,6.60
2024-03-09T15:26:44.625Z,7.00
2024-03-09T15:29:15.733Z,6.10
2024-03-09T15:31:45.564Z,7.70
2024-03-09T15:34:12.627Z,7.20
2024-03-09T15:36:40.839Z,7.40
2024-03-09T15:39:10.740Z,6.10
2024-03-09T15:41:37.721Z,6.90
2024-03-09T15:44:07.921Z,6.40
2024-03-09T15:46:37.265Z,6.50
2024-03-09T15:49:07.431Z,6.90
2024-03-09T15:51:37.204Z,6.10
2024-03-09T15:54:05.082Z,5.40
2024-03-09T15:56:34.668Z,6.30
2024-03-09T15:59:06.032Z,6.00
2024-03-09T16:01:36.909Z,6.10
2024-03-09T16:04:11.632Z,6.30
2024-03-09T16:06:48.374Z,6.40
2024-03-09T16:09:16.008Z,7.00
2024-03-09T16:11:43.544Z,7.00
2024-03-09T16:14:14.119Z,5.90
2024-03-09T16:16:41.761Z,7.10
2024-03-09T16:19:08.734Z,7.20
2024-03-09T16:21:38.526Z,6.50
2024-03-09T16:24:08.696Z,5.50
2024-03-09T16:26:36.121Z,6.60
2024-03-09T16:29:03.843Z,6.60
2024-03-09T16:31:37.328Z,6.60
2024-03-09T16:34:08.292Z,6.10
2024-03-09T16:36:35.739Z,6.10
2024-03-09T16:39:02.864Z,5.20
2024-03-09T16:41:30.202Z,5.00
2024-03-09T16:43:57.623Z,5.40
2024-03-09T16:46:25.277Z,4.40
2024-03-09T16:48:53.995Z,5.30
2024-03-09T16:51:22.568Z,5.70
2024-03-09T16:53:54.899Z,5.50
2024-03-09T16:56:22.277Z,4.00
2024-03-09T16:58:50.408Z,5.50
2024-03-09T17:01:17.681Z,5.30
2024-03-09T17:03:44.795Z,4.80
2024-03-09T17:06:17.238Z,4.60
2024-03-09T17:08:45.772Z,4.30
2024-03-09T17:11:15.593Z,4.70
2024-03-09T17:13:48.643Z,5.40
2024-03-09T17:16:19.118Z,3.90
2024-03-09T17:18:50.088Z,4.50
2024-03-09T17:21:18.393Z,4.30
2024-03-09T17:23:46.430Z,5.10
2024-03-09T17:26:14.299Z,5.50
2024-03-09T17:28:41.256Z,4.30
2024-03-09T17:31:11.010Z,3.90
2024-03-09T17:33:40.701Z,4.80
2024-03-09T17:36:07.953Z,4.10
2024-03-09T17:38:35.033Z,3.70
2024-03-09T17:41:03.230Z,3.80
2024-03-09T17:43:30.724Z,3.40
2024-03-09T17:45:57.878Z,5.50
2024-03-09T17:48:24.810Z,8.10
2024-03-09T17:50:52.037Z,7.40
2024-03-09T17:53:18.947Z,6.10
2024-03-09T17:55:48.544Z,4.20
2024-03-09T17:58:15.771Z,4.80
2024-03-09T18:00:42.663Z,5.10
2024-03-09T18:03:15.589Z,5.30
2024-03-09T18:05:42.667Z,7.10
2024-03-09T18:08:10.458Z,3.00
2024-03-09T18:10:43.204Z,2.50
2024-03-09T18:13:12.900Z,2.50
2024-03-09T18:15:43.756Z,2.70
2024-03-09T18:18:12.608Z,2.30
2024-03-09T18:20:44.578Z,2.20
2024-03-09T18:23:12.762Z,3.60
2024-03-09T18:25:40.817Z,2.30
2024-03-09T18:28:09.036Z,2.60
2024-03-09T18:30:36.708Z,2.90
2024-03-09T18:33:08.205Z,2.70
2024-03-09T18:35:36.030Z,2.80
2024-03-09T18:38:04.571Z,2.10
2024-03-09T18:40:32.284Z,2.30
2024-03-09T18:43:00.359Z,2.30
2024-03-09T18:45:34.613Z,2.10
2024-03-09T18:48:03.220Z,2.30
2024-03-09T18:50:31.705Z,2.20
2024-03-09T18:52:59.668Z,2.60
2024-03-09T18:55:29.312Z,2.40
2024-03-09T18:57:56.837Z,2.00
2024-03-09T19:00:31.755Z,2.50
2024-03-09T19:03:00.508Z,2.50
2024-03-09T19:05:28.618Z,2.70
2024-03-09T19:08:03.033Z,2.50
2024-03-09T19:10:32.786Z,2.60
2024-03-09T19:13:03.441Z,2.70
2024-03-09T19:15:33.283Z,2.70
2024-03-09T19:18:01.129Z,2.40
2024-03-09T19:20:29.608Z,2.50
2024-03-09T19:22:57.099Z,2.80
2024-03-09T19:25:24.323Z,2.30
2024-03-09T19:27:53.395Z,2.10
2024-03-09T19:30:27.389Z,2.50
2024-03-09T19:32:57.774Z,2.80
2024-03-09T19:35:26.991Z,1.80
2024-03-09T19:37:59.285Z,2.50
2024-03-09T19:40:28.887Z,2.70
2024-03-09T19:42:56.655Z,2.20
2024-03-09T19:45:25.363Z,2.00
2024-03-09T19:47:53.184Z,2.10
2024-03-09T19:50:23.489Z,2.50
2024-03-09T19:52:51.667Z,2.50
2024-03-09T19:55:24.500Z,1.60
2024-03-09T19:57:51.585Z,2.20
2024-03-09T20:00:23.924Z,2.30
2024-03-09T20:02:52.904Z,1.80
2024-03-09T20:05:24.545Z,1.90
2024-03-09T20:07:56.096Z,1.40
2024-03-09T20:10:24.673Z,1.80
2024-03-09T20:12:54.625Z,2.40
2024-03-09T20:15:22.550Z,2.20
2024-03-09T20:17:51.928Z,2.30
2024-03-09T20:20:19.941Z,2.50
2024-03-09T20:22:59.130Z,2.30
2024-03-09T20:25:28.174Z,2.50
2024-03-09T20:27:56.503Z,2.70
2024-03-09T20:30:23.998Z,2.60
2024-03-09T20:32:51.979Z,2.80
2024-03-09T20:35:19.762Z,2.10
2024-03-09T20:37:48.195Z,2.40
2024-03-09T20:40:20.392Z,2.10
2024-03-09T20:42:52.438Z,1.50
2024-03-09T20:45:21.893Z,2.10
2024-03-09T20:47:50.220Z,2.40
2024-03-09T20:50:22.184Z,2.20
2024-03-09T20:52:59.946Z,2.50
2024-03-09T20:55:28.875Z,2.60
2024-03-09T20:57:56.269Z,3.20
2024-03-09T21:00:24.197Z,2.30
2024-03-09T21:02:52.458Z,3.40
2024-03-09T21:05:20.126Z,3.20
2024-03-09T21:07:47.759Z,3.60
2024-03-09T21:10:15.111Z,3.40
2024-03-09T21:12:42.830Z,3.60
2024-03-09T21:15:10.803Z,3.30
2024-03-09T21:17:38.097Z,3.70
2024-03-09T21:20:13.147Z,4.50
2024-03-09T21:22:40.682Z,3.40
2024-03-09T21:25:12.200Z,4.20
2024-03-09T21:27:44.472Z,3.80
2024-03-09T21:30:15.049Z,3.70
2024-03-09T21:32:44.321Z,3.50
2024-03-09T21:35:14.418Z,4.30
2024-03-09T21:37:45.064Z,4.00
2024-03-09T21:40:14.554Z,4.10
2024-03-09T21:42:42.776Z,3.90
2024-03-09T21:45:10.141Z,3.40
2024-03-09T21:47:38.334Z,5.10
2024-03-09T21:50:06.230Z,3.70
2024-03-09T21:52:33.223Z,4.20
2024-03-09T21:55:00.178Z,4.20
2024-03-09T21:57:27.211Z,3.90
2024-03-09T21:59:54.355Z,3.90
2024-03-09T22:02:21.334Z,3.80
2024-03-09T22:04:48.550Z,4.10
2024-03-09T22:07:15.573Z,4.30
2024-03-09T22:09:42.496Z,3.60
2024-03-09T22:12:10.296Z,4.50
2024-03-09T22:14:40.303Z,4.20
2024-03-09T22:17:07.672Z,4.30
2024-03-09T22:19:34.688Z,4.30
2024-03-09T22:22:02.252Z,4.90
2024-03-09T22:24:29.301Z,4.60
2024-03-09T22:26:56.927Z,4.10
2024-03-09T22:29:24.580Z,4.20
2024-03-09T22:31:52.577Z,4.60
2024-03-09T22:34:19.861Z,3.90
2024-03-09T22:36:46.907Z,3.10
2024-03-09T22:39:17.506Z,4.40
2024-03-09T22:41:47.746Z,4.10
2024-03-09T22:44:15.792Z,4.00
2024-03-09T22:46:42.769Z,4.70
2024-03-09T22:49:10.444Z,4.00
2024-03-09T22:51:37.688Z,4.20
2024-03-09T22:54:04.695Z,3.60
2024-03-09T22:56:32.604Z,3.50
2024-03-09T22:58:59.549Z,3.30
2024-03-09T23:01:26.898Z,3.50
2024-03-09T23:03:54.453Z,3.20
2024-03-09T23:06:21.660Z,4.40
2024-03-09T23:08:49.300Z,4.60
2024-03-09T23:11:19.441Z,3.90
2024-03-09T23:13:48.215Z,3.50
2024-03-09T23:16:15.804Z,3.70
2024-03-09T23:18:43.399Z,3.20
2024-03-09T23:21:11.134Z,3.60
2024-03-09T23:23:38.434Z,4.10
2024-03-09T23:26:05.695Z,3.40
2024-03-09T23:28:32.736Z,2.90
2024-03-09T23:31:02.566Z,3.60
2024-03-09T23:33:29.433Z,3.60
2024-03-09T23:35:57.349Z,3.70
2024-03-09T23:38:24.306Z,3.50
2024-03-09T23:40:51.568Z,3.90
2024-03-09T23:43:22.412Z,3.20
2024-03-09T23:45:49.866Z,2.90
2024-03-09T23:48:16.868Z,3.30
2024-03-09T23:50:44.261Z,3.00
2024-03-09T23:53:13.304Z,3.40
2024-03-09T23:55:41.687Z,2.90
2024-03-09T23:58:08.903Z,3.40
